Flight Track Log - Related Links

Times and Time Zones

All times are in EST time to prevent confusion due to time zone crossing. See the DAL3720 flight status page for this flight to view local times or setup timezone preferences in your user account.

Time Position Orientation Groundspeed Altitude Reporting Facility
EST Latitude Longitude Course Direction KTS MPH feet Rate Location/Type
Wed 07:41:24 AM 42.2081 -83.3675 219° Southwest 152 175 1,300  Level Cleveland Center
Wed 07:42:01 AM 42.1875 -83.3897 219° Southwest 183 211 2,600 2,152 Climbing Cleveland Center
Wed 07:42:56 AM 42.1481 -83.4378 222° Southwest 236 272 4,600 1,781 Climbing Cleveland Center
Wed 07:43:05 AM 42.1497 -83.4356 45° Northeast 204 235 4,500 2,958 Descending Cleveland Center
Wed 07:44:07 AM 42.0886 -83.5056 220° Southwest 249 287 8,100 3,000 Climbing Cleveland Center
Wed 07:45:09 AM 42.0217 -83.5653 214° Southwest 284 327 10,700 2,049 Climbing Cleveland Center
Wed 07:46:10 AM 41.9344 -83.6231 206° Southwest 322 371 12,300 1,756 Climbing Cleveland Center
Wed 07:47:12 AM 41.8456 -83.6825 206° Southwest 353 406 14,300 1,935 Climbing Cleveland Center
Wed 07:48:14 AM 41.7542 -83.7414 206° Southwest 363 418 16,300 1,707 Climbing Cleveland Center
Wed 07:49:15 AM 41.6633 -83.8033 207° Southwest 366 421 17,800 1,561 Climbing Cleveland Center
Wed 07:50:17 AM 41.5772 -83.8739 212° Southwest 365 420 19,500 1,065 Climbing Cleveland Center
Wed 07:51:19 AM 41.4856 -83.9458 210° Southwest 379 436 20,000 242 Climbing Cleveland Center
Wed 07:52:21 AM 41.3883 -84.0208 210° Southwest 401 461 20,000  Level Cleveland Center
Wed 07:53:23 AM 41.2797 -84.1072 211° Southwest 398 458 20,000  Level Cleveland Center
Wed 07:54:25 AM 41.1886 -84.1828 212° Southwest 389 448 20,000  Level Cleveland Center
Wed 07:55:10 AM 41.1233 -84.2400 213° Southwest 390 449 20,000  Level Indianapolis Center
Wed 07:56:12 AM 41.0333 -84.3181 213° Southwest 389 448 20,000  Level Indianapolis Center
Wed 07:57:13 AM 40.9439 -84.3939 213° Southwest 386 444 20,000  Level Indianapolis Center
Wed 07:58:15 AM 40.8372 -84.4856 213° Southwest 383 441 20,000 -339 Level Indianapolis Center
Wed 07:59:17 AM 40.7475 -84.5628 213° Southwest 385 443 19,300 -829 Descending Indianapolis Center
Wed 08:00:18 AM 40.6581 -84.6392 213° Southwest 385 443 18,300 -780 Descending Indianapolis Center
Wed 08:01:20 AM 40.5686 -84.7147 213° Southwest 385 443 17,700 -871 Descending Indianapolis Center
Wed 08:02:22 AM 40.4803 -84.7886 212° Southwest 379 436 16,500 -1,282 Descending Indianapolis Center
Wed 08:03:03 AM 40.4111 -84.8469 213° Southwest 357 411 15,500 -1,180 Descending Indianapolis Center
Wed 08:03:23 AM 40.3983 -84.8586 215° Southwest 359 413 15,300 -1,102 Descending Indianapolis Center
Wed 08:03:52 AM 40.3458 -84.9033 213° Southwest 359 413 14,600 -1,258 Descending Indianapolis Center
Wed 08:04:25 AM 40.3047 -84.9386 213° Southwest 363 418 14,000 -1,200 Descending Indianapolis Center
Wed 08:04:47 AM 40.2669 -84.9681 211° Southwest 365 420 13,500 -1,161 Descending Indianapolis Center
Wed 08:05:27 AM 40.2106 -84.9656 178° South 368 423 12,800 -1,167 Descending Indianapolis Center
Wed 08:05:59 AM 40.1492 -84.9483 168° South 351 404 12,100 -1,161 Descending Indianapolis Center
Wed 08:06:29 AM 40.1136 -84.9394 169° South 358 412 11,600 -1,180 Descending Indianapolis Center
Wed 08:07:00 AM 40.0508 -84.9214 168° South 358 412 10,900 -1,161 Descending Indianapolis Center
Wed 08:07:31 AM 40.0164 -84.9128 169° South 356 410 10,400 -787 Descending Indianapolis Center
Wed 08:08:01 AM 39.9589 -84.8958 167° South 343 395 10,100 -295 Descending Indianapolis Center
Wed 08:08:32 AM 39.9167 -84.8847 169° South 348 400 10,100  Level Indianapolis Center
Wed 08:08:56 AM 39.8731 -84.8742 169° South 338 389 10,100  Level Indianapolis Center
Wed 08:09:34 AM 39.8250 -84.8594 167° South 342 394 10,100  Level Indianapolis Center
Wed 08:10:36 AM 39.7144 -84.8747 186° South 349 402 10,100 -48 Level Indianapolis Center
Wed 08:11:38 AM 39.6383 -84.9117 200° South 321 369 10,000 -829 Descending Indianapolis Center
Wed 08:12:39 AM 39.5608 -84.9014 174° South 286 329 8,400 -1,659 Descending Indianapolis Center
Wed 08:13:41 AM 39.5042 -84.8469 143° Southeast 264 304 6,600 -1,645 Descending Indianapolis Center
Wed 08:14:43 AM 39.4636 -84.7675 123° Southeast 264 304 5,000 -1,161 Descending Indianapolis Center
Wed 08:15:45 AM 39.4222 -84.6994 128° Southeast 250 288 4,200 -435 Descending Indianapolis Center
Wed 08:16:47 AM 39.3528 -84.6719 163° South 220 253 4,100 -48 Descending Indianapolis Center
Wed 08:17:49 AM 39.2886 -84.6675 177° South 231 266 4,100 -48 Level Indianapolis Center
Wed 08:18:51 AM 39.2217 -84.6669 180° South 238 274 4,000 -290 Descending Indianapolis Center
Wed 08:19:53 AM 39.1517 -84.6658 179° South 233 268 3,500 -917 Descending Indianapolis Center
Wed 08:21:28 AM 39.1000 -84.6667 181° South 147 169 1,600 -1,200 Descending Cincinnati TRACON
Wed 08:23:00 AM 39.0488 -84.6678 169° South  Level Estimated
Wed 08:30:00 AM 39.0488 -84.6678 169° South  Level Estimated

Login

Don't have an account? Register now (free) for customized features, flight alerts, and more!